createdAt,value
2019-02-16T00:01:27.116Z,143.7
2019-02-16T00:11:28.006Z,158.8
2019-02-16T00:21:28.298Z,148.0
2019-02-16T00:31:30.338Z,149.3
2019-02-16T00:41:27.204Z,136.9
2019-02-16T00:51:27.679Z,141.9
2019-02-16T01:01:27.598Z,138.1
2019-02-16T01:11:28.057Z,158.0
2019-02-16T01:21:26.902Z,146.3
2019-02-16T01:31:26.371Z,137.3
2019-02-16T01:41:27.692Z,147.1
2019-02-16T01:51:32.885Z,146.2
2019-02-16T02:01:26.378Z,155.0
2019-02-16T02:11:27.595Z,141.9
2019-02-16T02:21:28.414Z,145.6
2019-02-16T02:31:27.255Z,141.4
2019-02-16T02:41:27.796Z,143.7
2019-02-16T02:51:26.811Z,135.5
2019-02-16T03:01:26.456Z,138.9
2019-02-16T03:11:27.852Z,134.8
2019-02-16T03:21:26.576Z,127.3
2019-02-16T03:31:27.310Z,139.9
2019-02-16T03:41:27.153Z,135.3
2019-02-16T03:51:29.542Z,134.2
2019-02-16T04:01:27.178Z,139.2
2019-02-16T04:11:28.935Z,150.9
2019-02-16T04:21:26.720Z,134.0
2019-02-16T04:31:28.869Z,142.1
2019-02-16T04:41:27.224Z,134.1
2019-02-16T04:51:26.890Z,147.0
2019-02-16T05:01:27.303Z,126.1
2019-02-16T05:11:28.669Z,130.1
2019-02-16T05:21:26.463Z,128.7
2019-02-16T05:31:27.680Z,124.1
2019-02-16T05:41:30.323Z,121.9
2019-02-16T05:51:27.207Z,131.7
2019-02-16T06:01:27.153Z,129.4
2019-02-16T06:11:26.791Z,114.4
2019-02-16T06:21:27.113Z,119.2
2019-02-16T06:31:26.575Z,124.6
2019-02-16T06:41:29.748Z,117.3
2019-02-16T06:51:26.392Z,113.9
2019-02-16T07:01:27.020Z,107.6
2019-02-16T07:11:26.799Z,123.3
2019-02-16T07:21:27.123Z,104.5
2019-02-16T07:31:28.187Z,99.8
2019-02-16T07:41:27.001Z,94.5
2019-02-16T07:51:27.865Z,89.5
2019-02-16T08:01:26.782Z,92.1
2019-02-16T08:11:27.323Z,83.9
2019-02-16T08:21:27.773Z,80.0
2019-02-16T08:31:27.643Z,68.6
2019-02-16T08:41:27.285Z,57.9
2019-02-16T08:51:26.954Z,60.7
2019-02-16T09:01:28.273Z,49.7
2019-02-16T09:11:28.624Z,51.8
2019-02-16T09:21:26.437Z,32.4
2019-02-16T09:31:28.444Z,22.4
2019-02-16T09:41:30.764Z,23.5
2019-02-16T09:51:27.360Z,18.2
2019-02-16T10:01:27.056Z,21.0
2019-02-16T10:11:26.921Z,22.0
2019-02-16T10:21:27.095Z,20.0
2019-02-16T10:31:29.294Z,24.9
2019-02-16T10:41:27.117Z,20.7
2019-02-16T10:51:27.075Z,21.8
2019-02-16T11:01:26.695Z,20.9
2019-02-16T11:11:26.448Z,24.5
2019-02-16T11:21:27.363Z,27.1
2019-02-16T11:31:28.397Z,25.5
2019-02-16T11:41:27.129Z,24.2
2019-02-16T11:51:28.202Z,19.8
2019-02-16T12:01:27.272Z,17.7
2019-02-16T12:11:26.968Z,20.6
2019-02-16T12:21:28.392Z,24.1
2019-02-16T12:31:27.495Z,17.7
2019-02-16T12:41:27.895Z,22.3
2019-02-16T12:51:26.510Z,25.7
2019-02-16T13:01:27.721Z,25.3
2019-02-16T13:11:27.413Z,23.5
2019-02-16T13:21:28.878Z,24.8
2019-02-16T13:31:27.647Z,22.5
2019-02-16T13:41:27.839Z,22.5
2019-02-16T13:51:30.010Z,20.3
2019-02-16T14:01:27.815Z,19.3
2019-02-16T14:11:27.146Z,19.0
2019-02-16T14:21:28.125Z,17.9
2019-02-16T14:31:29.432Z,24.0
2019-02-16T14:41:27.058Z,15.8
2019-02-16T14:51:26.909Z,21.4
2019-02-16T15:01:26.677Z,16.6
2019-02-16T15:11:28.901Z,16.4
2019-02-16T15:21:30.172Z,19.9
2019-02-16T15:31:27.415Z,19.0
2019-02-16T15:41:27.206Z,19.4
2019-02-16T15:51:27.384Z,25.0
2019-02-16T16:01:27.223Z,22.7
2019-02-16T16:11:27.085Z,19.2
2019-02-16T16:21:27.544Z,25.6
2019-02-16T16:31:28.535Z,22.4
2019-02-16T16:41:27.500Z,27.0
2019-02-16T16:51:27.250Z,25.3
2019-02-16T17:01:28.107Z,27.1
2019-02-16T17:11:29.031Z,21.3
2019-02-16T17:21:27.918Z,34.5
2019-02-16T17:31:27.449Z,32.6
2019-02-16T17:41:27.179Z,37.3
2019-02-16T17:51:28.723Z,35.0
2019-02-16T18:01:26.440Z,38.9
2019-02-16T18:11:27.288Z,39.9
2019-02-16T18:21:27.258Z,41.3
2019-02-16T18:31:27.791Z,50.0
2019-02-16T18:41:26.596Z,56.1
2019-02-16T18:51:27.733Z,65.6
2019-02-16T19:01:27.989Z,240.3
2019-02-16T19:11:26.620Z,197.9
2019-02-16T19:21:26.744Z,236.8
2019-02-16T19:31:32.805Z,170.3
2019-02-16T19:41:32.563Z,225.0
2019-02-16T19:51:29.017Z,155.9
2019-02-16T20:01:27.299Z,150.7
2019-02-16T20:11:27.844Z,151.7
2019-02-16T20:21:28.875Z,157.9
2019-02-16T20:31:26.790Z,145.9
2019-02-16T20:41:26.477Z,154.1
2019-02-16T20:51:27.063Z,158.9
2019-02-16T21:01:26.828Z,163.9
2019-02-16T21:11:28.199Z,163.8
2019-02-16T21:21:27.410Z,166.3
2019-02-16T21:31:29.277Z,184.2
2019-02-16T21:41:28.011Z,180.3
2019-02-16T21:51:28.087Z,180.8
2019-02-16T22:01:27.009Z,178.5
2019-02-16T22:11:27.260Z,183.6
2019-02-16T22:21:27.661Z,193.3
2019-02-16T22:31:27.705Z,181.4
2019-02-16T22:41:27.567Z,179.9
2019-02-16T22:51:28.089Z,210.8
2019-02-16T23:01:26.922Z,195.7
2019-02-16T23:11:29.271Z,205.4
2019-02-16T23:21:27.192Z,229.7
2019-02-16T23:31:26.935Z,224.4
2019-02-16T23:41:26.577Z,218.4
2019-02-16T23:51:29.740Z,219.5
